Neueste Datei finden, umbenennen und verschieben

26/10/2008 - 12:28 von Hans Muecke | Report spam
Folgendes Problem:

Per wget greife ich auf ein FTP-Verzeichnis zu. Im Verzeichnis sind Dateien
enthalten nach dem Muster

A0_datumuhrzeit.png
A1_datumuhrzeit.png
A2_datumuhrzeit.png
B0_datumuhrzeit.png
B1_datumuhrzeit.png
C0_datumuhrzeit.png
D0_datumuhrzeit.png
E0_datumuhrzeit.png

Mit wget und cron ziehe ich einen Teil der Dateien (und jeweils nur die
Neuesten), z.B.

wget -r -N ftp://server/verz/A0*
wget -r -N ftp://server/verz/A2*
wget -r -N ftp://server/verz/D0*

Womit ich aber nun überfordert bin ...

Ich will die zuletzt heruntergeladenen Dateien von "A0_datumuhrzeit.png"
in "AO_latest.png" umbenennen und in ein anderes Verzeichnis kopieren.

Wie geht das?

Danke für die Hilfe!

Talk to you later ... Hans (313 to go)

2008/10/26 10:50
EDDS 261050Z 12001KT CAVOK 12/03 Q1025 NOSIG
 

Lesen sie die antworten

#1 Heiko Schlenker
26/10/2008 - 15:54 | Warnen spam
* Hans Muecke schrieb:

Wie geht das?



Das Problem ist nicht Linux-spezifisch. Also bist Du hier falsch.
Die Newsgroup de.comp.os.unix.shell ist thematisch besser geeignet.

Gruß, Heiko
Neu im Usenet? -> http://www.kirchwitz.de/~amk/dni/
Linux-Anfànger(in)? -> http://www.dcoul.de/infos/
Fragen zu KDE/GNOME? -> de.comp.os.unix.apps.{kde,gnome}
Passende Newsgroup gesucht? -> http://groups.google.com/groups?as_umsgid=

Ähnliche fragen